To NAV CANADA Home Page Login to a new session Search on AWWS site Feedback and Comments Disclaimer Vers la page française équivalente Tips FAQ What's new on the site To the Forecasts and Observations / NOTAM section To "File a Flight Plan" website Publications and other links Update of the User's profile FIC Telephone Numbers My Weather Data Folder Route Weather Data Regional Weather Data Local Weather Data To the Forecasts and Observations / NOTAM section
Request Generated 04/20/2014 at 21:25:36 UTC . Weather information available at that time is displayed.

METAR/TAF

If you find any discrepancies between the coded METAR/TAF and the plain language METAR/TAF please use the coded METAR/TAF. LWIS bulletins are not decoded in plain language.

VANCOUVER/VANCOUVER INTL/BC    

METAR CYVR 202100Z 14010KT 12SM FEW030 BKN064 OVC110 12/05 A3026 RMK CF2SC5AC1 SLP246=
METAR
LOCATION
CYVR - VANCOUVER/VANCOUVER INTL/BC
DATE - TIME
20 APRIL 2014 - 2100 UTC
WIND
140 TRUE @ 10  KNOTS
VISIBILITY
12 STAT.  MILES
RUNWAY VISUAL RANGE
WEATHER
CLOUDINESS
FEW CLOUDS (1/8 - 2/8) 3000  FT
BROKEN CLOUDS (5/8 - 7/8) 6400  FT
OVERCAST 11000  FT
TEMP / DEWPOINT
12 C / 5 C
ALTIMETER
30.26 IN HG
RECENT WEATHER
WIND SHEAR

METAR CYVR 202000Z 15014KT 12SM FEW025 SCT045 BKN080 OVC120 12/06 A3027 RMK CF1SC2AC4AS1 SLP251=
METAR
LOCATION
CYVR - VANCOUVER/VANCOUVER INTL/BC
DATE - TIME
20 APRIL 2014 - 2000 UTC
WIND
150 TRUE @ 14  KNOTS
VISIBILITY
12 STAT.  MILES
RUNWAY VISUAL RANGE
WEATHER
CLOUDINESS
FEW CLOUDS (1/8 - 2/8) 2500  FT
SCATTERED CLOUDS (3/8 - 4/8) 4500  FT
BROKEN CLOUDS (5/8 - 7/8) 8000  FT
OVERCAST 12000  FT
TEMP / DEWPOINT
12 C / 6 C
ALTIMETER
30.27 IN HG
RECENT WEATHER
WIND SHEAR

METAR CYVR 201900Z 13012G18KT 12SM FEW020 SCT050 BKN088 OVC120 12/07 A3028 RMK CF1SC2AC4AS1 SLP254=
METAR
LOCATION
CYVR - VANCOUVER/VANCOUVER INTL/BC
DATE - TIME
20 APRIL 2014 - 1900 UTC
WIND
130 TRUE @ 12  KNOTS
GUSTS
18 KNOTS
VISIBILITY
12 STAT.  MILES
RUNWAY VISUAL RANGE
WEATHER
CLOUDINESS
FEW CLOUDS (1/8 - 2/8) 2000  FT
SCATTERED CLOUDS (3/8 - 4/8) 5000  FT
BROKEN CLOUDS (5/8 - 7/8) 8800  FT
OVERCAST 12000  FT
TEMP / DEWPOINT
12 C / 7 C
ALTIMETER
30.28 IN HG
RECENT WEATHER
WIND SHEAR

TAF CYVR 202038Z 2021/2124 14015G25KT P6SM FEW020 BKN080 FM202200 14015G25KT P6SM FEW025 BKN050 TEMPO 2022/2108 P6SM -SHRA BKN025 FM210800 08008KT P6SM BKN050 BKN100 TEMPO 2108/2121 P6SM -RA BECMG 2115/2117 12007KT FM212100 27010KT P6SM SCT020 BKN060 TEMPO 2121/2124 P6SM -SHRA BKN020 RMK NXT FCST BY 210000Z=
TAF
LOCATION

CYVR - VANCOUVER/VANCOUVER INTL/BC
VALIDITY [UTC]
20 APR - 2038 to
22 APR - 0000
 
TIMES
[UTC]
WIND
[DEGREES TRUE]
VISIBILITY
[STAT. MILES]
WEATHER
CLOUDINESS
[FEET AGL]
 
20 APR - 2100 to
20 APR - 2200
140 @ 15 KNOTS
GUSTS 25 KNOTS
6+
NIL
2000 FEW
8000 BROKEN
 
20 APR - 2200 to
21 APR - 0800
140 @ 15 KNOTS
GUSTS 25 KNOTS
6+
NIL
2500 FEW
5000 BROKEN
TEMPORARY CHANGES
20 APR - 2200 to
21 APR - 0800
 
6+
LIGHT RAIN SHOWER
2500 BROKEN
 
21 APR - 0800 to
21 APR - 2100
80 @ 8 KNOTS
6+
NIL
5000 BROKEN
10000 BROKEN
TEMPORARY CHANGES
21 APR - 0800 to
21 APR - 2100
 
6+
LIGHT RAIN
 
BECOMING
21 APR - 1500 to
21 APR - 1700
120 @ 7 KNOTS
 
 
 
 
21 APR - 2100 to
22 APR - 0000
270 @ 10 KNOTS
6+
NIL
2000 SCATTERED
6000 BROKEN
TEMPORARY CHANGES
21 APR - 2100 to
22 APR - 0000
 
6+
LIGHT RAIN SHOWER
2000 BROKEN
REMARKS
THE NEXT FORECAST WILL BE ISSUED BY 0000 UTC ON DAY 21


Your time UTC time
Weather data provided by Environment Canada and NAV CANADA